Time;durP1;ratioP1;P1;durP2;ratioP2;P2;SDS_P1;SDS_P2;PMS_P1;PMS_P2;Temp;Humidity;BMP_temperature;BMP_pressure;BME280_temperature;BME280_humidity;BME280_pressure;Samples;Min_cycle;Max_cycle;Signal;HPM_P1;HPM_P2
2022/11/03 00:01:42;;;;;;;26.52;24.20;;;15.10;99.90;;;;;;4995068;28;20373;-82
2022/11/03 00:04:09;;;;;;;24.60;22.27;;;15.00;99.90;;;;;;4979219;28;20386;-82
2022/11/03 00:06:36;;;;;;;26.73;24.13;;;15.00;99.90;;;;;;4995787;28;20021;-82
2022/11/03 00:09:04;;;;;;;28.35;22.55;;;14.90;99.90;;;;;;4995924;28;20109;-82
2022/11/03 00:11:32;;;;;;;25.40;23.08;;;14.90;99.90;;;;;;5011864;28;20034;-82
2022/11/03 00:13:58;;;;;;;25.83;23.00;;;15.00;99.90;;;;;;5012093;28;20044;-82
2022/11/03 00:16:25;;;;;;;26.35;23.63;;;14.80;99.90;;;;;;5007195;28;20042;-82
2022/11/03 00:18:51;;;;;;;25.65;22.85;;;14.90;99.90;;;;;;4995211;28;20026;-82
2022/11/03 00:21:17;;;;;;;25.88;23.92;;;14.80;99.90;;;;;;4995330;28;20034;-82
2022/11/03 00:23:43;;;;;;;27.10;24.42;;;14.80;99.90;;;;;;4995266;28;20030;-82
2022/11/03 00:26:20;;;;;;;25.95;23.40;;;14.90;99.90;;;;;;4978927;28;20418;-82
2022/11/03 00:28:50;;;;;;;25.10;22.52;;;14.90;99.90;;;;;;4995274;28;20049;-82
2022/11/03 00:31:18;;;;;;;25.60;23.17;;;14.90;99.90;;;;;;4995339;28;20030;-82
2022/11/03 00:33:44;;;;;;;25.67;23.73;;;14.80;99.90;;;;;;4978453;28;20034;-82
2022/11/03 00:36:12;;;;;;;26.58;22.83;;;14.80;99.90;;;;;;5011473;28;20045;-82
2022/11/03 00:38:38;;;;;;;26.02;23.40;;;14.90;99.90;;;;;;5011518;28;20486;-82
2022/11/03 00:41:04;;;;;;;26.38;23.67;;;15.00;99.90;;;;;;5011543;28;20490;-82
2022/11/03 00:43:32;;;;;;;25.27;23.30;;;15.00;99.90;;;;;;5011344;28;20028;-82
2022/11/03 00:45:58;;;;;;;27.58;23.35;;;15.10;99.90;;;;;;4994448;28;20053;-82
2022/11/03 00:48:33;;;;;;;26.05;23.55;;;15.10;99.90;;;;;;4994674;28;20034;-82
2022/11/03 00:51:09;;;;;;;25.25;23.00;;;15.00;99.90;;;;;;5011510;28;20072;-82
2022/11/03 00:53:46;;;;;;;25.08;22.92;;;14.90;99.90;;;;;;5011429;28;20037;-82
2022/11/03 00:56:14;;;;;;;25.50;23.00;;;14.90;99.90;;;;;;4996019;28;20041;-82
2022/11/03 00:58:41;;;;;;;25.27;23.02;;;14.90;99.90;;;;;;5011549;28;20033;-82
2022/11/03 01:01:12;;;;;;;26.77;24.02;;;15.00;99.90;;;;;;5010365;28;20026;-82
2022/11/03 01:03:39;;;;;;;25.10;22.55;;;15.00;99.90;;;;;;5012177;28;20089;-81
2022/11/03 01:08:53;;;;;;;25.88;23.85;;;15.10;99.90;;;;;;5013478;28;20033;-82
2022/11/03 01:14:06;;;;;;;23.90;21.75;;;15.10;99.90;;;;;;5003727;28;20037;-81
2022/11/03 01:16:32;;;;;;;26.55;24.02;;;15.10;99.90;;;;;;4977342;28;20418;-82
2022/11/03 01:18:59;;;;;;;23.75;21.10;;;15.10;99.90;;;;;;4995081;28;20379;-82
2022/11/03 01:21:25;;;;;;;26.40;23.50;;;15.00;99.90;;;;;;5012460;28;20410;-82
2022/11/03 01:23:51;;;;;;;30.38;23.25;;;15.00;99.90;;;;;;5012154;28;20026;-82
2022/11/03 01:26:17;;;;;;;24.85;22.55;;;14.80;99.90;;;;;;4994987;28;20502;-82
2022/11/03 01:28:44;;;;;;;25.60;23.10;;;14.90;99.90;;;;;;5011125;28;20378;-82
2022/11/03 01:31:21;;;;;;;25.58;22.88;;;14.70;99.90;;;;;;5011595;28;20026;-82
2022/11/03 01:33:49;;;;;;;24.95;22.52;;;14.70;99.90;;;;;;4994129;28;20034;-82
2022/11/03 01:36:15;;;;;;;26.52;23.90;;;14.80;99.90;;;;;;5013151;28;20038;-82
2022/11/03 01:38:41;;;;;;;25.35;22.27;;;14.80;99.90;;;;;;5014928;28;20033;-82
2022/11/03 01:41:15;;;;;;;25.40;22.73;;;14.70;99.90;;;;;;5014998;28;20040;-81
2022/11/03 01:43:41;;;;;;;24.38;21.90;;;14.70;99.90;;;;;;5016106;28;20049;-82
2022/11/03 01:46:15;;;;;;;24.27;22.30;;;14.60;99.90;;;;;;5013642;28;20033;-82
2022/11/03 01:48:47;;;;;;;25.35;23.08;;;14.60;99.90;;;;;;4998938;28;20030;-82
2022/11/03 01:51:13;;;;;;;;;;;14.60;99.90;;;;;;5015095;28;20498;-82
2022/11/03 01:53:41;;;;;;;25.67;23.08;;;14.50;99.90;;;;;;5015822;28;20125;-82
2022/11/03 01:56:07;;;;;;;24.23;21.95;;;14.60;99.90;;;;;;4998889;28;20034;-82
2022/11/03 01:58:35;;;;;;;26.98;24.40;;;14.60;99.90;;;;;;4998261;28;20033;-82
2022/11/03 02:01:01;;;;;;;27.85;23.83;;;14.60;99.90;;;;;;5013702;28;20045;-82
2022/11/03 02:03:33;;;;;;;25.30;22.92;;;14.60;99.90;;;;;;4998177;28;20383;-82
2022/11/03 02:05:59;;;;;;;24.83;22.67;;;14.60;99.90;;;;;;4998805;28;20026;-82
2022/11/03 02:08:29;;;;;;;24.98;22.88;;;14.60;99.90;;;;;;5014347;28;20044;-82
2022/11/03 02:10:55;;;;;;;23.50;21.33;;;14.50;99.90;;;;;;5014446;28;20018;-82
2022/11/03 02:13:23;;;;;;;24.80;22.65;;;14.50;99.90;;;;;;4997905;28;20033;-82
2022/11/03 02:15:54;;;;;;;26.85;22.92;;;14.50;99.90;;;;;;4996693;28;20037;-82
2022/11/03 02:18:22;;;;;;;25.35;23.08;;;14.50;99.90;;;;;;4997852;28;20048;-82
2022/11/03 02:20:51;;;;;;;23.88;21.50;;;14.50;99.90;;;;;;4998129;28;20467;-82
2022/11/03 02:23:56;;;;;;;24.17;22.25;;;14.50;99.90;;;;;;4998160;28;20028;-81
2022/11/03 02:26:22;;;;;;;22.92;20.88;;;14.50;99.90;;;;;;4954709;29;20043;-82
2022/11/03 02:28:48;;;;;;;23.35;21.55;;;14.40;99.90;;;;;;4922826;29;20393;-82
2022/11/03 02:31:26;;;;;;;24.70;22.38;;;14.40;99.90;;;;;;4922496;29;20031;-82
2022/11/03 02:34:07;;;;;;;26.52;24.05;;;14.40;99.90;;;;;;4938472;29;20031;-82
2022/11/03 02:36:41;;;;;;;26.00;23.70;;;14.40;99.90;;;;;;4954348;29;20035;-82
2022/11/03 02:39:12;;;;;;;26.00;23.52;;;14.40;99.90;;;;;;4938603;29;20050;-82
2022/11/03 02:41:38;;;;;;;26.02;23.63;;;14.40;99.90;;;;;;4954463;29;20058;-82
2022/11/03 02:44:06;;;;;;;26.88;24.35;;;14.20;99.90;;;;;;4921241;29;20528;-82
2022/11/03 02:46:32;;;;;;;24.90;22.67;;;14.20;99.90;;;;;;4937646;29;20039;-82
2022/11/03 02:48:58;;;;;;;26.45;23.90;;;14.20;99.90;;;;;;4922284;29;20054;-82
2022/11/03 02:51:24;;;;;;;26.17;23.75;;;14.20;99.90;;;;;;4929629;28;20464;-82
2022/11/03 02:54:19;;;;;;;25.15;23.13;;;14.20;99.90;;;;;;4935253;29;20067;-82
2022/11/03 02:56:48;;;;;;;28.25;25.20;;;14.20;99.90;;;;;;4918941;29;20445;-82
2022/11/03 02:59:17;;;;;;;27.77;24.95;;;14.20;99.90;;;;;;4919055;29;20036;-82
2022/11/03 03:01:51;;;;;;;27.88;25.55;;;14.20;99.90;;;;;;4933931;28;20035;-81
2022/11/03 03:04:27;;;;;;;26.85;24.73;;;14.20;99.90;;;;;;4988533;28;20490;-82
2022/11/03 03:06:56;;;;;;;25.65;23.55;;;14.30;99.90;;;;;;4959979;28;20406;-81
2022/11/03 03:09:25;;;;;;;27.73;25.00;;;14.20;99.90;;;;;;4986784;28;20041;-81
2022/11/03 03:11:51;;;;;;;26.85;24.55;;;14.20;99.90;;;;;;4992314;28;20041;-81
2022/11/03 03:14:23;;;;;;;24.02;21.98;;;14.30;99.90;;;;;;4975577;28;20034;-81
2022/11/03 03:16:51;;;;;;;23.13;21.20;;;14.30;99.90;;;;;;4975295;28;20454;-81
2022/11/03 03:19:38;;;;;;;23.90;21.65;;;14.40;99.90;;;;;;4957147;28;20035;-81
2022/11/03 03:22:18;;;;;;;23.50;21.10;;;14.30;99.90;;;;;;4972957;28;20031;-81
2022/11/03 03:24:51;;;;;;;23.50;21.35;;;14.30;99.90;;;;;;4972719;28;20031;-81
2022/11/03 03:27:17;;;;;;;21.40;19.38;;;14.40;99.90;;;;;;4986772;28;20045;-81
2022/11/03 03:29:49;;;;;;;23.15;20.90;;;14.40;99.90;;;;;;4992043;28;20026;-81
2022/11/03 03:32:17;;;;;;;23.65;21.30;;;14.30;99.90;;;;;;4991360;28;20399;-81
2022/11/03 03:34:43;;;;;;;24.60;22.20;;;14.30;99.90;;;;;;4992139;28;20036;-81
2022/11/03 03:37:09;;;;;;;23.55;21.23;;;14.20;99.90;;;;;;5002132;28;20507;-81
2022/11/03 03:39:37;;;;;;;23.90;21.85;;;14.30;99.90;;;;;;4992934;28;20031;-81
2022/11/03 03:42:03;;;;;;;23.75;21.77;;;14.30;99.90;;;;;;4993144;28;20030;-81
2022/11/03 03:44:29;;;;;;;24.05;22.15;;;14.30;99.90;;;;;;4992607;28;20037;-81
2022/11/03 03:47:00;;;;;;;21.60;19.98;;;14.40;99.90;;;;;;4992395;28;20487;-81
2022/11/03 03:49:26;;;;;;;21.67;19.83;;;14.30;99.90;;;;;;4997048;28;20026;-81
2022/11/03 03:51:52;;;;;;;23.42;19.45;;;14.20;99.90;;;;;;5012287;28;20049;-81
2022/11/03 03:54:19;;;;;;;22.92;20.58;;;14.30;99.90;;;;;;5012604;28;20088;-81
2022/11/03 03:57:09;;;;;;;23.10;21.00;;;14.30;99.90;;;;;;5013182;28;20030;-81
2022/11/03 03:59:35;;;;;;;22.80;21.00;;;14.30;99.90;;;;;;5012088;28;20394;-81
2022/11/03 04:02:02;;;;;;;23.48;21.25;;;14.30;99.90;;;;;;5013033;28;20030;-81
2022/11/03 04:04:28;;;;;;;23.27;21.17;;;14.30;99.90;;;;;;5013612;28;20379;-81
2022/11/03 04:07:45;;;;;;;22.42;20.58;;;14.20;99.90;;;;;;5013274;28;20041;-82
2022/11/03 04:09:40;;;;;;;22.52;20.77;;;14.20;99.90;;;;;;5013216;28;20037;-82
2022/11/03 04:23:08;;;;;;;21.63;19.63;;;14.20;99.90;;;;;;4999744;28;20415;-82
2022/11/03 04:25:34;;;;;;;22.13;20.00;;;14.20;99.90;;;;;;5011561;28;20026;-82
2022/11/03 04:28:01;;;;;;;21.83;20.20;;;14.20;99.90;;;;;;5012929;28;20430;-82
2022/11/03 04:30:27;;;;;;;21.75;19.88;;;14.20;99.90;;;;;;5011424;28;20030;-82
2022/11/03 04:32:53;;;;;;;22.25;20.40;;;14.20;99.90;;;;;;5011394;28;20053;-82
2022/11/03 04:35:22;;;;;;;23.00;21.00;;;14.20;99.90;;;;;;5012830;28;20253;-82
2022/11/03 04:37:50;;;;;;;21.92;19.70;;;14.30;99.90;;;;;;5011777;28;20034;-82
2022/11/03 04:40:17;;;;;;;23.10;20.80;;;14.20;99.90;;;;;;4994874;28;20096;-82
2022/11/03 04:42:43;;;;;;;24.73;20.25;;;14.10;99.90;;;;;;5011681;28;20040;-82
2022/11/03 04:45:23;;;;;;;21.95;19.70;;;14.20;99.90;;;;;;5010620;28;20042;-82
2022/11/03 04:47:49;;;;;;;22.08;19.35;;;14.20;99.90;;;;;;5010615;28;20041;-82
2022/11/03 04:50:20;;;;;;;22.42;20.05;;;14.20;99.90;;;;;;5011454;28;20026;-82
2022/11/03 04:52:58;;;;;;;22.05;20.02;;;14.20;99.90;;;;;;4998622;28;20040;-82
2022/11/03 04:55:25;;;;;;;22.83;20.45;;;14.20;99.90;;;;;;5013989;28;20053;-82
2022/11/03 04:57:57;;;;;;;24.00;20.60;;;14.20;99.90;;;;;;4998104;28;20037;-82
2022/11/03 05:00:23;;;;;;;27.27;21.05;;;14.20;99.90;;;;;;5014408;28;20025;-82
2022/11/03 05:02:49;;;;;;;24.45;20.40;;;14.20;99.90;;;;;;5032064;28;20029;-82
2022/11/03 05:05:20;;;;;;;22.92;20.77;;;14.20;99.90;;;;;;4998335;28;20018;-82
2022/11/03 05:07:48;;;;;;;22.58;20.50;;;14.20;99.90;;;;;;4998893;28;20474;-82
2022/11/03 05:10:19;;;;;;;22.40;20.35;;;14.20;99.90;;;;;;4996831;28;20029;-82
2022/11/03 05:12:49;;;;;;;22.13;19.67;;;14.20;99.90;;;;;;4998555;28;20478;-82
2022/11/03 05:15:33;;;;;;;21.75;19.70;;;14.10;99.90;;;;;;4997261;28;20399;-82
2022/11/03 05:17:59;;;;;;;23.98;19.98;;;14.10;99.90;;;;;;5014175;28;20052;-81
2022/11/03 05:20:33;;;;;;;26.65;20.00;;;14.00;99.90;;;;;;5014714;28;20030;-82
2022/11/03 05:23:00;;;;;;;24.30;22.00;;;14.00;99.90;;;;;;4981221;28;20045;-81
2022/11/03 05:25:41;;;;;;;23.17;21.00;;;14.00;99.90;;;;;;4998167;28;20037;-81
2022/11/03 05:28:22;;;;;;;24.20;21.85;;;13.90;99.90;;;;;;5032193;28;20401;-81
2022/11/03 05:30:48;;;;;;;24.92;22.33;;;13.90;99.90;;;;;;5013802;28;20025;-81
2022/11/03 05:33:18;;;;;;;23.50;21.45;;;13.90;99.90;;;;;;5013611;28;20025;-82
2022/11/03 05:35:44;;;;;;;24.25;21.70;;;13.90;99.90;;;;;;5014261;28;20479;-82
2022/11/03 05:38:11;;;;;;;25.25;21.98;;;13.90;99.90;;;;;;5013801;28;20054;-81
2022/11/03 05:40:37;;;;;;;23.15;21.17;;;13.90;99.90;;;;;;5014456;28;20052;-82
2022/11/03 05:43:03;;;;;;;25.02;22.60;;;13.90;99.90;;;;;;5031949;28;20034;-81
2022/11/03 05:45:33;;;;;;;24.60;22.35;;;13.90;99.90;;;;;;5031278;28;20060;-81
2022/11/03 05:48:00;;;;;;;24.35;21.90;;;13.90;99.90;;;;;;5014349;28;20382;-82
2022/11/03 05:50:32;;;;;;;24.30;21.85;;;13.70;99.90;;;;;;4993619;28;20045;-82
2022/11/03 05:53:35;;;;;;;23.42;21.52;;;13.90;99.90;;;;;;5010595;28;20029;-81
2022/11/03 05:56:02;;;;;;;24.92;22.50;;;13.70;99.90;;;;;;5010955;28;20038;-82
2022/11/03 05:58:36;;;;;;;26.92;22.42;;;13.70;99.90;;;;;;5012170;28;20030;-81
2022/11/03 06:01:17;;;;;;;24.33;21.95;;;13.70;99.90;;;;;;5010245;28;20037;-82
2022/11/03 06:03:43;;;;;;;;;;;13.70;99.90;;;;;;5014864;28;20040;-81
2022/11/03 06:06:38;;;;;;;23.48;21.02;;;13.60;99.90;;;;;;5013736;28;19909;-81
2022/11/03 06:09:18;;;;;;;22.70;20.63;;;13.50;99.90;;;;;;5017204;28;20025;-82
2022/11/03 06:11:44;;;;;;;24.35;22.38;;;13.60;99.90;;;;;;5014462;28;20021;-82
2022/11/03 06:14:31;;;;;;;26.10;23.55;;;13.60;99.90;;;;;;4996875;28;20038;-82
2022/11/03 06:17:09;;;;;;;24.73;22.40;;;13.70;99.90;;;;;;5013422;28;20030;-82
2022/11/03 06:19:43;;;;;;;24.75;22.35;;;13.70;99.90;;;;;;4997950;28;20026;-82
2022/11/03 06:22:35;;;;;;;24.90;22.40;;;13.60;99.90;;;;;;4999285;28;20037;-82
2022/11/03 06:25:34;;;;;;;24.08;22.02;;;13.60;99.90;;;;;;5017417;28;20032;-82
2022/11/03 06:28:10;;;;;;;26.27;23.95;;;13.40;99.90;;;;;;4903505;29;20044;-82
2022/11/03 06:30:39;;;;;;;26.08;23.98;;;13.40;99.90;;;;;;4919431;29;20417;-82
2022/11/03 06:33:26;;;;;;;26.60;24.00;;;13.60;99.90;;;;;;4903189;29;20148;-82
2022/11/03 06:36:02;;;;;;;24.90;23.13;;;13.50;99.90;;;;;;4919385;29;20039;-82
2022/11/03 06:38:29;;;;;;;25.73;22.98;;;13.60;99.90;;;;;;4919541;29;20048;-82
2022/11/03 06:40:55;;;;;;;26.42;23.85;;;13.70;99.90;;;;;;4919162;29;20027;-82
2022/11/03 06:43:27;;;;;;;25.27;22.95;;;13.60;99.90;;;;;;4919371;29;20036;-82
2022/11/03 06:45:56;;;;;;;26.40;23.80;;;13.60;99.90;;;;;;4919530;29;20038;-82
2022/11/03 06:48:27;;;;;;;26.38;23.80;;;13.60;99.90;;;;;;4919668;29;20160;-82
2022/11/03 06:50:53;;;;;;;;;;;13.60;99.90;;;;;;4919229;29;20050;-82
2022/11/03 06:53:22;;;;;;;23.67;21.42;;;13.60;99.90;;;;;;4935056;29;19917;-82
2022/11/03 06:55:48;;;;;;;24.77;22.30;;;13.50;99.90;;;;;;4950628;29;20040;-82
2022/11/03 06:58:27;;;;;;;26.13;23.80;;;13.50;99.90;;;;;;4934793;29;20063;-82
2022/11/03 07:00:54;;;;;;;26.50;24.05;;;13.40;99.90;;;;;;4948770;28;20028;-82
2022/11/03 07:03:26;;;;;;;26.42;22.77;;;13.50;99.90;;;;;;4960938;28;20052;-82
2022/11/03 07:05:59;;;;;;;;;;;13.40;99.90;;;;;;5033595;28;20033;-82
2022/11/03 07:08:40;;;;;;;23.90;21.77;;;13.50;99.90;;;;;;5000002;28;19912;-82
2022/11/03 07:11:19;;;;;;;26.33;23.55;;;13.50;99.90;;;;;;5033394;28;20038;-82
2022/11/03 07:13:49;;;;;;;26.73;23.98;;;13.60;99.90;;;;;;5000137;28;20033;-81
2022/11/03 07:16:25;;;;;;;27.35;24.58;;;13.70;99.90;;;;;;4999782;28;20501;-82
2022/11/03 07:18:51;;;;;;;27.58;24.83;;;13.70;99.90;;;;;;5000287;28;20783;-82
2022/11/03 07:21:22;;;;;;;29.02;26.00;;;13.60;99.90;;;;;;5034218;28;20033;-81
2022/11/03 07:23:48;;;;;;;27.80;25.42;;;13.70;99.90;;;;;;5016355;28;20383;-81
2022/11/03 07:26:14;;;;;;;29.25;26.45;;;13.80;99.90;;;;;;5016306;28;20029;-82
2022/11/03 07:28:40;;;;;;;27.38;24.80;;;13.80;99.90;;;;;;5033481;28;20045;-81
2022/11/03 07:31:19;;;;;;;28.95;26.33;;;13.70;99.90;;;;;;4999192;28;20021;-81
2022/11/03 07:33:45;;;;;;;27.92;25.58;;;13.70;99.90;;;;;;4999066;28;20026;-81
2022/11/03 07:36:15;;;;;;;30.80;25.48;;;13.70;99.90;;;;;;4999443;28;20422;-82
2022/11/03 07:38:42;;;;;;;30.17;27.25;;;13.90;99.90;;;;;;5016070;28;20063;-82
2022/11/03 07:41:11;;;;;;;32.22;28.80;;;14.00;99.90;;;;;;4999685;28;20025;-82
2022/11/03 07:43:37;;;;;;;28.63;25.83;;;14.20;99.90;;;;;;4999620;28;20041;-82
2022/11/03 07:46:04;;;;;;;30.52;27.38;;;14.20;99.90;;;;;;5015802;28;20025;-81
2022/11/03 07:48:36;;;;;;;32.00;29.20;;;14.30;99.90;;;;;;4999444;28;20032;-82
2022/11/03 07:51:16;;;;;;;30.05;26.92;;;14.30;99.90;;;;;;5015613;28;20391;-82
2022/11/03 07:53:46;;;;;;;30.17;27.75;;;14.20;99.90;;;;;;5016426;28;20413;-82
2022/11/03 07:56:33;;;;;;;26.60;24.15;;;14.30;99.90;;;;;;4999269;28;20029;-81
2022/11/03 07:59:00;;;;;;;26.50;24.10;;;14.20;99.90;;;;;;4991407;28;20108;-82
2022/11/03 08:01:28;;;;;;;27.65;24.80;;;14.30;99.90;;;;;;5015249;28;20037;-82
2022/11/03 08:04:04;;;;;;;29.00;26.15;;;14.20;99.90;;;;;;5014879;28;20509;-82
2022/11/03 08:06:31;;;;;;;29.17;26.27;;;14.30;99.90;;;;;;4982856;28;20041;-82
2022/11/03 08:08:57;;;;;;;29.48;24.17;;;14.30;99.90;;;;;;5015798;28;20033;-82
2022/11/03 08:11:23;;;;;;;25.42;23.42;;;14.30;99.90;;;;;;4999280;28;20032;-82
2022/11/03 08:13:50;;;;;;;27.80;25.33;;;14.40;99.90;;;;;;5015963;28;20036;-82
2022/11/03 08:16:17;;;;;;;30.27;27.58;;;14.40;99.90;;;;;;4982574;28;20044;-82
2022/11/03 08:18:43;;;;;;;29.42;27.25;;;14.40;99.90;;;;;;5032345;28;20056;-82
2022/11/03 08:21:09;;;;;;;30.70;28.15;;;14.40;99.90;;;;;;5032986;28;20030;-82
2022/11/03 08:23:35;;;;;;;29.33;26.75;;;14.40;99.90;;;;;;4998718;28;20040;-82
2022/11/03 08:26:01;;;;;;;27.42;24.75;;;14.50;99.90;;;;;;5015027;28;20342;-81
2022/11/03 08:28:27;;;;;;;25.83;23.45;;;14.50;99.90;;;;;;5015749;28;20077;-81
2022/11/03 08:30:53;;;;;;;29.75;27.15;;;14.60;99.90;;;;;;5014545;28;20036;-82
2022/11/03 08:33:19;;;;;;;29.70;27.33;;;14.60;99.90;;;;;;4998282;28;20037;-82
2022/11/03 08:35:46;;;;;;;27.85;25.65;;;14.60;99.90;;;;;;5015174;28;20033;-82
2022/11/03 08:38:12;;;;;;;29.15;26.65;;;14.60;99.90;;;;;;5014802;28;20041;-82
2022/11/03 08:40:38;;;;;;;25.73;23.65;;;14.60;99.90;;;;;;5032707;28;20040;-82
2022/11/03 08:43:05;;;;;;;26.52;24.00;;;14.70;99.90;;;;;;5032626;28;20033;-82
2022/11/03 08:45:31;;;;;;;24.35;22.67;;;14.70;99.90;;;;;;5014577;28;20398;-82
2022/11/03 08:47:57;;;;;;;25.00;22.95;;;14.70;99.90;;;;;;5032075;28;20030;-82
2022/11/03 08:50:23;;;;;;;25.10;22.73;;;14.70;99.90;;;;;;5014639;28;20025;-82
2022/11/03 08:52:49;;;;;;;23.80;21.67;;;14.70;99.90;;;;;;5032381;28;20040;-82
2022/11/03 08:55:15;;;;;;;24.48;22.45;;;14.70;99.90;;;;;;5014885;28;20089;-82
2022/11/03 08:57:42;;;;;;;23.00;21.17;;;14.70;99.90;;;;;;5014127;28;20616;-82
2022/11/03 09:00:09;;;;;;;25.60;23.17;;;14.80;99.90;;;;;;5031745;28;20030;-81
2022/11/03 09:02:35;;;;;;;26.25;23.67;;;14.80;99.90;;;;;;4997563;28;20042;-82
2022/11/03 09:05:02;;;;;;;24.50;22.50;;;14.80;99.90;;;;;;4997413;28;20521;-82
2022/11/03 09:07:28;;;;;;;26.50;24.70;;;14.80;99.90;;;;;;5014221;28;20478;-82
2022/11/03 09:09:55;;;;;;;27.60;24.85;;;14.80;99.90;;;;;;5031999;28;20025;-82
2022/11/03 09:12:21;;;;;;;25.08;23.15;;;14.80;99.90;;;;;;4998326;28;20033;-82
2022/11/03 09:14:47;;;;;;;23.05;21.27;;;14.90;99.90;;;;;;5031649;28;20025;-82
2022/11/03 09:17:13;;;;;;;22.23;20.30;;;14.90;99.90;;;;;;5013318;28;20475;-82
2022/11/03 09:19:39;;;;;;;22.17;20.38;;;14.90;99.90;;;;;;5014602;28;20045;-82
2022/11/03 09:22:05;;;;;;;24.38;22.25;;;14.90;99.90;;;;;;5032024;28;20026;-82
2022/11/03 09:24:31;;;;;;;22.38;20.27;;;14.90;99.90;;;;;;4997713;28;20041;-82
2022/11/03 09:26:57;;;;;;;23.25;20.95;;;14.90;99.90;;;;;;5032110;28;20036;-82
2022/11/03 09:29:23;;;;;;;21.27;19.35;;;14.90;99.90;;;;;;5031813;28;20034;-82
2022/11/03 09:31:50;;;;;;;23.17;20.90;;;14.90;99.90;;;;;;5031908;28;20040;-82
2022/11/03 09:34:16;;;;;;;23.38;21.27;;;15.00;99.90;;;;;;4997867;28;20033;-82
2022/11/03 09:36:42;;;;;;;22.02;20.50;;;15.00;99.90;;;;;;5014065;28;20029;-82
2022/11/03 09:39:08;;;;;;;23.48;21.65;;;15.00;99.90;;;;;;5013913;28;20053;-82
2022/11/03 09:41:34;;;;;;;22.55;20.88;;;15.00;99.90;;;;;;5031831;28;20040;-82
2022/11/03 09:44:00;;;;;;;24.17;22.08;;;15.00;99.90;;;;;;5013930;28;20041;-81
2022/11/03 09:46:27;;;;;;;22.02;20.42;;;15.00;99.90;;;;;;5013853;28;20049;-82
2022/11/03 09:48:53;;;;;;;23.65;21.65;;;15.00;99.90;;;;;;4981493;28;20046;-82
2022/11/03 09:51:20;;;;;;;23.50;21.25;;;15.00;99.90;;;;;;4994307;28;20080;-82
2022/11/03 09:53:46;;;;;;;23.13;21.52;;;15.00;99.90;;;;;;5010884;28;20033;-82
2022/11/03 09:56:13;;;;;;;24.48;22.38;;;15.10;99.90;;;;;;5012494;28;20049;-82
2022/11/03 09:58:39;;;;;;;25.58;23.67;;;15.10;99.90;;;;;;5014312;28;20399;-82
2022/11/03 10:01:07;;;;;;;22.33;20.50;;;15.10;99.90;;;;;;5014106;28;20502;-82
2022/11/03 10:03:34;;;;;;;22.63;20.85;;;15.00;99.90;;;;;;5017499;28;20386;-82
2022/11/03 10:06:01;;;;;;;22.55;20.95;;;14.90;99.90;;;;;;4985520;28;20040;-82
2022/11/03 10:08:31;;;;;;;22.05;20.35;;;14.90;99.90;;;;;;5035872;28;20378;-82
2022/11/03 10:10:57;;;;;;;20.92;19.63;;;14.80;99.90;;;;;;5018113;28;20041;-82
2022/11/03 10:13:38;;;;;;;24.15;22.30;;;14.80;99.90;;;;;;5001170;28;20084;-82
2022/11/03 10:16:05;;;;;;;22.63;21.15;;;14.70;99.90;;;;;;5001819;28;20394;-82
2022/11/03 10:18:32;;;;;;;23.30;21.48;;;14.70;99.90;;;;;;4984256;28;20409;-82
2022/11/03 10:21:02;;;;;;;25.08;23.38;;;14.70;99.90;;;;;;5001440;28;20029;-82
2022/11/03 10:23:28;;;;;;;26.30;24.50;;;14.60;99.90;;;;;;5017470;28;20037;-82
2022/11/03 10:26:19;;;;;;;25.35;23.63;;;14.60;99.90;;;;;;5016984;28;20060;-81
2022/11/03 10:29:04;;;;;;;26.20;24.43;;;14.60;99.90;;;;;;5019752;28;20045;-81
2022/11/03 10:31:33;;;;;;;21.98;20.73;;;14.50;99.90;;;;;;5017843;28;20064;-81
2022/11/03 10:33:59;;;;;;;23.00;21.58;;;14.30;99.90;;;;;;5016809;28;20382;-82
2022/11/03 10:36:30;;;;;;;21.38;20.02;;;14.20;99.90;;;;;;5017572;28;20034;-82
2022/11/03 10:38:56;;;;;;;21.63;20.40;;;14.20;99.90;;;;;;5001055;28;20099;-81
2022/11/03 10:41:24;;;;;;;21.05;19.85;;;14.10;99.90;;;;;;5000329;28;20386;-81
2022/11/03 10:44:00;;;;;;;21.77;20.50;;;14.00;99.90;;;;;;5000607;28;20021;-81
2022/11/03 10:46:26;;;;;;;22.50;21.10;;;14.00;99.90;;;;;;5034384;28;20044;-81
2022/11/03 10:49:24;;;;;;;24.00;22.27;;;14.00;99.90;;;;;;5034478;28;20021;-81
2022/11/03 10:51:51;;;;;;;22.40;21.10;;;14.10;99.90;;;;;;4999876;28;20438;-82
2022/11/03 10:54:18;;;;;;;23.42;21.77;;;14.10;99.90;;;;;;4997328;28;20045;-82
2022/11/03 10:56:45;;;;;;;20.70;19.50;;;14.00;99.90;;;;;;4996874;28;20092;-81
2022/11/03 10:59:19;;;;;;;21.55;20.17;;;14.00;99.90;;;;;;4980736;28;20045;-81
2022/11/03 11:01:45;;;;;;;21.85;20.45;;;13.90;99.90;;;;;;4996309;28;20036;-81
2022/11/03 11:04:17;;;;;;;23.85;22.27;;;13.90;99.90;;;;;;5025320;28;20033;-81
2022/11/03 11:06:43;;;;;;;20.67;19.48;;;13.90;99.90;;;;;;5016910;28;20030;-81
2022/11/03 11:09:11;;;;;;;29.00;26.05;;;13.90;99.90;;;;;;5000566;28;20466;-81
2022/11/03 11:11:37;;;;;;;25.55;23.35;;;14.00;99.90;;;;;;5033865;28;20022;-81
2022/11/03 11:14:50;;;;;;;23.92;22.42;;;14.10;99.90;;;;;;5016317;28;20033;-80
2022/11/03 11:17:44;;;;;;;27.23;25.33;;;14.10;99.90;;;;;;4934038;29;20044;-81
2022/11/03 11:20:25;;;;;;;26.27;24.58;;;14.10;99.90;;;;;;4918941;29;20043;-81
2022/11/03 11:22:51;;;;;;;25.25;23.23;;;14.20;99.90;;;;;;4934570;29;20055;-81
2022/11/03 11:25:18;;;;;;;24.27;22.58;;;14.30;99.90;;;;;;4918354;29;20039;-81
2022/11/03 11:27:44;;;;;;;23.65;22.30;;;14.30;99.90;;;;;;4902768;29;20031;-81
2022/11/03 11:30:18;;;;;;;25.90;24.30;;;14.20;99.90;;;;;;4918198;29;20038;-81
2022/11/03 11:32:44;;;;;;;24.05;22.42;;;14.20;99.90;;;;;;4934648;29;20084;-81
2022/11/03 11:35:14;;;;;;;22.25;21.05;;;14.20;99.90;;;;;;4933608;29;20062;-81
2022/11/03 11:37:40;;;;;;;21.02;19.67;;;14.30;99.90;;;;;;4918409;29;20410;-81
2022/11/03 11:40:24;;;;;;;21.10;19.80;;;14.30;99.90;;;;;;4917815;29;20043;-82
2022/11/03 11:43:05;;;;;;;21.23;19.83;;;14.20;99.90;;;;;;4933959;29;20563;-81
2022/11/03 11:46:22;;;;;;;21.48;20.13;;;14.20;99.90;;;;;;4932987;29;20036;-81
2022/11/03 11:49:08;;;;;;;21.63;20.23;;;14.10;99.90;;;;;;4909148;29;20537;-81
2022/11/03 11:51:35;;;;;;;21.40;20.13;;;14.00;99.90;;;;;;4902065;29;20055;-82
2022/11/03 11:54:07;;;;;;;21.75;20.55;;;13.70;99.90;;;;;;4899315;29;20039;-81
2022/11/03 11:56:33;;;;;;;22.10;20.90;;;13.80;99.90;;;;;;4908495;29;20062;-81
2022/11/03 11:58:59;;;;;;;28.13;25.98;;;13.80;99.90;;;;;;4902187;29;20052;-81
2022/11/03 12:01:36;;;;;;;26.33;24.60;;;13.90;99.90;;;;;;4886102;29;20374;-81
2022/11/03 12:04:07;;;;;;;23.98;22.45;;;13.80;99.90;;;;;;4917998;29;20042;-81
2022/11/03 12:06:34;;;;;;;23.17;21.77;;;13.90;99.90;;;;;;4902311;29;20505;-81
2022/11/03 12:09:12;;;;;;;22.70;21.35;;;13.90;99.90;;;;;;4917855;29;20055;-81
2022/11/03 12:11:47;;;;;;;25.00;23.60;;;14.00;99.90;;;;;;4918570;29;20047;-81
2022/11/03 12:14:39;;;;;;;24.20;22.92;;;14.10;99.90;;;;;;4901399;29;20047;-81
2022/11/03 12:17:17;;;;;;;23.58;22.30;;;14.20;99.90;;;;;;4932144;29;20036;-81
2022/11/03 12:19:47;;;;;;;22.63;21.33;;;14.30;99.90;;;;;;4933405;29;20076;-81
2022/11/03 12:22:22;;;;;;;23.80;22.50;;;14.30;99.90;;;;;;4917962;29;20032;-81
2022/11/03 12:24:50;;;;;;;22.83;21.52;;;14.40;99.90;;;;;;4997412;28;20046;-81
2022/11/03 12:27:18;;;;;;;23.35;22.05;;;14.40;99.90;;;;;;5014872;28;20049;-82
2022/11/03 12:29:45;;;;;;;22.40;20.67;;;14.60;99.90;;;;;;4998895;28;20501;-81
2022/11/03 12:32:11;;;;;;;21.48;20.02;;;14.70;99.90;;;;;;5014642;28;20463;-82
2022/11/03 12:34:37;;;;;;;22.65;21.30;;;14.70;99.90;;;;;;5014614;28;20033;-81
2022/11/03 12:37:03;;;;;;;20.25;19.15;;;14.70;99.90;;;;;;5032698;28;20022;-82
2022/11/03 12:39:29;;;;;;;19.10;17.90;;;14.70;99.90;;;;;;5032143;28;20044;-81
2022/11/03 12:41:55;;;;;;;18.48;17.48;;;14.70;99.90;;;;;;5014842;28;20034;-81
2022/11/03 12:44:21;;;;;;;19.27;18.20;;;14.60;99.90;;;;;;5014556;28;20041;-81
2022/11/03 12:46:47;;;;;;;20.33;19.23;;;14.70;99.90;;;;;;5014366;28;20038;-81
2022/11/03 12:49:13;;;;;;;19.98;18.77;;;14.70;99.90;;;;;;5032346;28;20029;-81
2022/11/03 12:51:39;;;;;;;18.63;17.60;;;14.60;99.90;;;;;;5014994;28;20041;-81
2022/11/03 12:54:05;;;;;;;18.40;17.33;;;14.60;99.90;;;;;;5032044;28;20029;-82
2022/11/03 12:56:32;;;;;;;20.15;18.90;;;14.60;99.90;;;;;;4997839;28;20033;-82
2022/11/03 12:58:58;;;;;;;19.85;18.65;;;14.70;99.90;;;;;;5014608;28;20044;-81
2022/11/03 13:01:24;;;;;;;18.73;17.70;;;14.70;99.90;;;;;;5014049;28;20026;-81